Terminal Aerodrome Forecast
Issued by NWS

Home | Current Version | Previous Version | Text Only | Print | Product List | Glossary On
Versions: 1 2 3 4 5 6 7 8 9 10 11 12 13 14
185
FTUS44 KBMX 281430 AAA
TAFEET
TAF AMD
KEET 281430Z 2815/2912 17008KT P6SM BKN015
     FM281600 17009G15KT P6SM BKN025
     FM282000 17012KT P6SM BKN050
     FM282200 17010KT P6SM BKN100
     FM290600 18008KT P6SM OVC015=

USA.gov is the U.S. government's official web portal to all federal, state and local government web resources and services.